createdAt,value
2018-04-06T00:00:53.967Z,2.60
2018-04-06T00:01:53.942Z,2.60
2018-04-06T00:02:53.916Z,2.60
2018-04-06T00:03:53.894Z,2.50
2018-04-06T00:04:53.867Z,2.60
2018-04-06T00:05:53.838Z,2.40
2018-04-06T00:06:53.811Z,2.20
2018-04-06T00:07:53.785Z,2.40
2018-04-06T00:08:53.761Z,2.50
2018-04-06T00:09:53.734Z,2.50
2018-04-06T00:10:53.707Z,2.10
2018-04-06T00:11:53.679Z,2.70
2018-04-06T00:12:53.654Z,2.50
2018-04-06T00:13:53.630Z,2.90
2018-04-06T00:14:53.602Z,2.80
2018-04-06T00:15:53.577Z,2.30
2018-04-06T00:16:53.550Z,2.80
2018-04-06T00:17:53.523Z,2.60
2018-04-06T00:18:53.497Z,2.50
2018-04-06T00:19:53.470Z,2.60
2018-04-06T00:20:53.446Z,2.50
2018-04-06T00:21:53.418Z,2.40
2018-04-06T00:22:53.392Z,2.60
2018-04-06T00:23:53.365Z,2.50
2018-04-06T00:24:53.344Z,2.80
2018-04-06T00:25:53.315Z,2.50
2018-04-06T00:26:53.289Z,3.10
2018-04-06T00:27:53.260Z,2.80
2018-04-06T00:28:53.236Z,2.80
2018-04-06T00:29:53.208Z,2.70
2018-04-06T00:30:53.183Z,2.50
2018-04-06T00:31:53.155Z,2.60
2018-04-06T00:32:53.129Z,2.90
2018-04-06T00:33:53.103Z,2.70
2018-04-06T00:34:53.078Z,2.80
2018-04-06T00:35:53.050Z,2.70
2018-04-06T00:36:53.023Z,2.70
2018-04-06T00:37:53.002Z,2.50
2018-04-06T00:38:52.973Z,2.70
2018-04-06T00:39:52.945Z,3.20
2018-04-06T00:40:52.920Z,3.00
2018-04-06T00:41:52.905Z,2.60
2018-04-06T00:42:52.868Z,2.70
2018-04-06T00:43:52.841Z,2.90
2018-04-06T00:44:52.815Z,2.70
2018-04-06T00:45:52.793Z,3.10
2018-04-06T00:46:52.763Z,3.10
2018-04-06T00:47:52.736Z,2.90
2018-04-06T00:48:52.710Z,3.00
2018-04-06T00:49:52.684Z,2.60
2018-04-06T00:50:52.657Z,2.70
2018-04-06T00:51:52.630Z,2.80
2018-04-06T00:52:52.603Z,2.70
2018-04-06T00:53:52.577Z,2.90
2018-04-06T00:54:52.553Z,2.70
2018-04-06T00:55:52.524Z,2.70
2018-04-06T00:56:52.497Z,2.80
2018-04-06T00:57:52.471Z,3.10
2018-04-06T00:58:52.447Z,2.80
2018-04-06T00:59:52.419Z,3.20
2018-04-06T01:00:52.393Z,2.80
2018-04-06T01:01:52.366Z,2.90
2018-04-06T01:02:52.343Z,2.90
2018-04-06T01:03:52.313Z,2.80
2018-04-06T01:04:52.286Z,3.40
2018-04-06T01:05:52.260Z,2.90
2018-04-06T01:06:52.237Z,2.90
2018-04-06T01:07:52.207Z,3.00
2018-04-06T01:08:52.180Z,2.80
2018-04-06T01:09:52.155Z,2.70
2018-04-06T01:10:52.131Z,2.80
2018-04-06T01:11:52.102Z,2.60
2018-04-06T01:12:52.075Z,2.80
2018-04-06T01:13:52.049Z,2.70
2018-04-06T01:14:52.023Z,2.80
2018-04-06T01:15:51.997Z,2.60
2018-04-06T01:16:51.970Z,2.90
2018-04-06T01:17:51.943Z,2.70
2018-04-06T01:18:51.917Z,2.70
2018-04-06T01:19:51.890Z,3.00
2018-04-06T01:20:51.865Z,2.80
2018-04-06T01:21:51.838Z,3.00
2018-04-06T01:22:51.811Z,3.00
2018-04-06T01:23:51.784Z,2.70
2018-04-06T01:24:51.759Z,2.70
2018-04-06T01:25:51.731Z,2.80
2018-04-06T01:26:51.705Z,2.70
2018-04-06T01:27:51.678Z,3.00
2018-04-06T01:28:51.652Z,2.70
2018-04-06T01:29:51.660Z,2.80
2018-04-06T01:30:51.600Z,3.00
2018-04-06T01:31:51.572Z,2.90
2018-04-06T01:32:51.546Z,2.90
2018-04-06T01:33:51.519Z,2.80
2018-04-06T01:34:51.493Z,3.10
2018-04-06T01:35:51.467Z,3.30
2018-04-06T01:36:51.440Z,2.90
2018-04-06T01:37:52.916Z,2.70
2018-04-06T01:38:51.387Z,2.90
2018-04-06T01:39:51.360Z,3.10
2018-04-06T01:40:51.334Z,3.10
2018-04-06T01:41:51.307Z,2.90
2018-04-06T01:42:51.280Z,3.10
2018-04-06T01:43:51.254Z,2.60
2018-04-06T01:44:51.228Z,3.10
2018-04-06T01:45:51.200Z,3.40
2018-04-06T01:46:51.177Z,3.20
2018-04-06T01:47:51.146Z,3.00
2018-04-06T01:48:51.120Z,3.10
2018-04-06T01:49:51.095Z,3.30
2018-04-06T01:50:51.068Z,2.90
2018-04-06T01:51:51.041Z,2.90
2018-04-06T01:52:51.014Z,3.60
2018-04-06T01:53:50.987Z,2.90
2018-04-06T01:54:50.961Z,3.10
2018-04-06T01:55:50.935Z,3.00
2018-04-06T01:56:50.907Z,2.70
2018-04-06T01:57:50.881Z,3.20
2018-04-06T01:58:50.854Z,3.00
2018-04-06T01:59:50.830Z,3.40
2018-04-06T02:00:50.799Z,3.20
2018-04-06T02:01:50.772Z,3.20
2018-04-06T02:02:50.749Z,3.20
2018-04-06T02:03:50.721Z,3.30
2018-04-06T02:04:51.445Z,3.20
2018-04-06T02:05:50.668Z,2.70
2018-04-06T02:06:50.639Z,3.10
2018-04-06T02:07:50.616Z,3.00
2018-04-06T02:08:50.586Z,3.40
2018-04-06T02:09:50.560Z,3.10
2018-04-06T02:10:50.533Z,3.00
2018-04-06T02:11:50.505Z,3.30
2018-04-06T02:12:50.479Z,3.20
2018-04-06T02:13:50.453Z,3.20
2018-04-06T02:14:50.424Z,3.30
2018-04-06T02:15:50.398Z,3.50
2018-04-06T02:16:50.371Z,3.40
2018-04-06T02:17:50.344Z,3.10
2018-04-06T02:18:50.318Z,3.10
2018-04-06T02:19:50.291Z,3.30
2018-04-06T02:20:51.765Z,3.20
2018-04-06T02:21:50.238Z,3.30
2018-04-06T02:22:50.212Z,3.30
2018-04-06T02:23:50.184Z,3.70
2018-04-06T02:24:50.188Z,3.50
2018-04-06T02:25:50.129Z,3.40
2018-04-06T02:26:52.355Z,3.80
2018-04-06T02:27:50.074Z,3.50
2018-04-06T02:28:50.047Z,3.20
2018-04-06T02:29:50.021Z,3.30
2018-04-06T02:30:49.994Z,3.60
2018-04-06T02:31:49.987Z,3.40
2018-04-06T02:32:49.943Z,3.90
2018-04-06T02:33:49.914Z,3.40
2018-04-06T02:34:49.887Z,3.50
2018-04-06T02:35:49.859Z,3.50
2018-04-06T02:36:49.832Z,4.10
2018-04-06T02:37:49.814Z,3.70
2018-04-06T02:38:49.778Z,3.90
2018-04-06T02:39:49.751Z,3.50
2018-04-06T02:40:49.726Z,3.60
2018-04-06T02:41:49.697Z,3.70
2018-04-06T02:42:49.674Z,3.60
2018-04-06T02:43:49.644Z,3.60
2018-04-06T02:44:49.615Z,3.40
2018-04-06T02:45:49.596Z,3.40
2018-04-06T02:46:49.562Z,3.70
2018-04-06T02:47:49.534Z,3.40
2018-04-06T02:48:49.508Z,3.70
2018-04-06T02:49:49.481Z,3.40
2018-04-06T02:50:49.453Z,3.20
2018-04-06T02:51:49.425Z,2.90
2018-04-06T02:52:49.400Z,3.30
2018-04-06T02:53:49.372Z,3.30
2018-04-06T02:54:49.344Z,3.10
2018-04-06T02:55:49.317Z,3.20
2018-04-06T02:56:49.290Z,3.10
2018-04-06T02:57:49.265Z,3.40
2018-04-06T02:58:49.990Z,3.30
2018-04-06T02:59:49.208Z,3.70
2018-04-06T03:00:49.184Z,3.40
2018-04-06T03:01:49.153Z,3.40
2018-04-06T03:02:49.129Z,3.40
2018-04-06T03:03:49.102Z,3.40
2018-04-06T03:04:49.072Z,3.70
2018-04-06T03:05:49.046Z,3.20
2018-04-06T03:06:49.019Z,3.60
2018-04-06T03:07:48.990Z,3.40
2018-04-06T03:08:48.962Z,3.30
2018-04-06T03:09:48.937Z,3.70
2018-04-06T03:10:48.908Z,3.40
2018-04-06T03:11:48.886Z,3.20
2018-04-06T03:12:48.853Z,3.30
2018-04-06T03:13:48.827Z,4.00
2018-04-06T03:14:48.799Z,3.90
2018-04-06T03:15:48.776Z,3.90
2018-04-06T03:16:48.745Z,3.50
2018-04-06T03:17:48.717Z,3.50
2018-04-06T03:18:48.691Z,3.50
2018-04-06T03:19:48.665Z,3.50
2018-04-06T03:20:48.634Z,3.30
2018-04-06T03:21:48.608Z,3.10
2018-04-06T03:22:48.581Z,3.20
2018-04-06T03:23:48.554Z,3.40
2018-04-06T03:24:48.526Z,3.30
2018-04-06T03:25:49.249Z,3.40
2018-04-06T03:26:48.471Z,3.30
2018-04-06T03:27:48.443Z,3.40
2018-04-06T03:28:48.416Z,3.70
2018-04-06T03:29:48.389Z,3.50
2018-04-06T03:30:48.365Z,3.50
2018-04-06T03:31:48.336Z,3.90
2018-04-06T03:32:48.308Z,3.40
2018-04-06T03:33:48.280Z,3.40
2018-04-06T03:34:48.253Z,3.50
2018-04-06T03:35:48.226Z,3.50
2018-04-06T03:36:48.198Z,3.80
2018-04-06T03:37:48.172Z,3.60
2018-04-06T03:38:48.195Z,4.00
2018-04-06T03:39:48.117Z,3.80
2018-04-06T03:40:48.088Z,3.60
2018-04-06T03:41:48.061Z,3.60
2018-04-06T03:42:48.034Z,3.70
2018-04-06T03:43:48.006Z,3.70
2018-04-06T03:44:47.984Z,3.70
2018-04-06T03:45:47.952Z,3.60
2018-04-06T03:46:47.924Z,4.10
2018-04-06T03:47:47.897Z,3.70
2018-04-06T03:48:47.870Z,3.90
2018-04-06T03:49:47.841Z,4.10
2018-04-06T03:50:47.815Z,4.20
2018-04-06T03:51:48.536Z,4.40
2018-04-06T03:52:47.759Z,4.50
2018-04-06T03:53:47.731Z,4.40
2018-04-06T03:54:47.708Z,3.90
2018-04-06T03:55:47.676Z,4.40
2018-04-06T03:56:47.655Z,4.40
2018-04-06T03:57:47.622Z,4.20
2018-04-06T03:58:47.596Z,4.40
2018-04-06T03:59:47.570Z,4.60
2018-04-06T04:00:47.539Z,4.60
2018-04-06T04:01:47.512Z,4.80
2018-04-06T04:02:47.486Z,4.50
2018-04-06T04:03:47.459Z,4.10
2018-04-06T04:04:47.430Z,5.10
2018-04-06T04:05:47.403Z,4.90
2018-04-06T04:06:47.374Z,5.40
2018-04-06T04:07:47.346Z,4.30
2018-04-06T04:08:47.318Z,4.40
2018-04-06T04:09:47.294Z,4.40
2018-04-06T04:10:47.265Z,4.10
2018-04-06T04:11:47.236Z,4.20
2018-04-06T04:12:47.208Z,4.70
2018-04-06T04:13:47.181Z,4.50
2018-04-06T04:14:47.153Z,4.80
2018-04-06T04:15:47.125Z,4.50
2018-04-06T04:16:47.097Z,4.40
2018-04-06T04:17:47.071Z,4.50
2018-04-06T04:18:47.043Z,4.70
2018-04-06T04:19:47.014Z,4.40
2018-04-06T04:20:46.987Z,4.80
2018-04-06T04:21:46.959Z,4.20
2018-04-06T04:22:46.932Z,4.50
2018-04-06T04:23:46.902Z,4.80
2018-04-06T04:24:46.878Z,5.00
2018-04-06T04:25:46.848Z,4.60
2018-04-06T04:26:46.820Z,4.20
2018-04-06T04:27:46.793Z,5.00
2018-04-06T04:28:46.766Z,5.00
2018-04-06T04:29:46.737Z,4.80
2018-04-06T04:30:46.714Z,4.60
2018-04-06T04:31:46.681Z,4.90
2018-04-06T04:32:46.655Z,5.20
2018-04-06T04:33:46.627Z,5.40
2018-04-06T04:34:46.598Z,4.90
2018-04-06T04:35:46.572Z,5.00
2018-04-06T04:36:46.543Z,4.50
2018-04-06T04:37:46.515Z,4.90
2018-04-06T04:38:46.487Z,5.50
2018-04-06T04:39:46.459Z,4.90
2018-04-06T04:40:46.431Z,5.60
2018-04-06T04:41:46.403Z,5.00
2018-04-06T04:42:46.376Z,5.20
2018-04-06T04:43:46.347Z,5.10
2018-04-06T04:44:46.319Z,5.10
2018-04-06T04:45:46.292Z,5.50
2018-04-06T04:46:46.310Z,5.00
2018-04-06T04:47:46.236Z,5.30
2018-04-06T04:48:46.208Z,5.90
2018-04-06T04:49:46.182Z,5.40
2018-04-06T04:50:46.154Z,5.10
2018-04-06T04:51:46.126Z,4.90
2018-04-06T04:52:46.098Z,5.70
2018-04-06T04:53:46.070Z,4.90
2018-04-06T04:54:46.042Z,5.50
2018-04-06T04:55:46.013Z,5.70
2018-04-06T04:56:45.988Z,4.90
2018-04-06T04:57:45.957Z,5.70
2018-04-06T04:58:45.934Z,5.40
2018-04-06T04:59:45.906Z,5.30
2018-04-06T05:00:45.875Z,5.20
2018-04-06T05:01:45.846Z,5.50
2018-04-06T05:02:45.818Z,5.40
2018-04-06T05:03:45.790Z,5.20
2018-04-06T05:04:45.763Z,5.10
2018-04-06T05:05:45.734Z,5.20
2018-04-06T05:06:45.707Z,5.70
2018-04-06T05:07:45.678Z,5.40
2018-04-06T05:08:45.649Z,6.20
2018-04-06T05:09:45.622Z,5.60
2018-04-06T05:10:45.594Z,5.90
2018-04-06T05:11:45.565Z,5.60
2018-04-06T05:12:45.538Z,5.50
2018-04-06T05:13:45.509Z,5.80
2018-04-06T05:14:45.483Z,5.20
2018-04-06T05:15:45.453Z,5.80
2018-04-06T05:16:45.425Z,5.80
2018-04-06T05:17:45.399Z,5.20
2018-04-06T05:18:45.370Z,5.50
2018-04-06T05:19:45.341Z,5.30
2018-04-06T05:20:45.314Z,6.00
2018-04-06T05:21:45.285Z,5.60
2018-04-06T05:22:45.257Z,5.20
2018-04-06T05:23:45.237Z,5.60
2018-04-06T05:24:45.202Z,5.60
2018-04-06T05:25:45.174Z,5.90
2018-04-06T05:26:45.146Z,5.70
2018-04-06T05:27:45.118Z,5.90
2018-04-06T05:28:45.088Z,5.10
2018-04-06T05:29:45.061Z,5.10
2018-04-06T05:30:45.033Z,5.20
2018-04-06T05:31:45.004Z,5.60
2018-04-06T05:32:44.976Z,5.20
2018-04-06T05:33:44.949Z,5.20
2018-04-06T05:34:44.921Z,5.20
2018-04-06T05:35:44.891Z,5.90
2018-04-06T05:36:44.864Z,5.50
2018-04-06T05:37:44.837Z,5.40
2018-04-06T05:38:44.848Z,5.10
2018-04-06T05:39:44.781Z,5.20
2018-04-06T05:40:44.753Z,5.00
2018-04-06T05:41:44.724Z,5.40
2018-04-06T05:42:44.696Z,4.80
2018-04-06T05:43:44.667Z,5.00
2018-04-06T05:44:44.639Z,5.20
2018-04-06T05:45:44.613Z,5.20
2018-04-06T05:46:44.583Z,5.60
2018-04-06T05:47:44.562Z,5.10
2018-04-06T05:48:44.531Z,5.00
2018-04-06T05:49:44.501Z,5.00
2018-04-06T05:50:44.473Z,5.00
2018-04-06T05:51:44.444Z,4.70
2018-04-06T05:52:44.416Z,5.50
2018-04-06T05:53:44.388Z,5.00
2018-04-06T05:54:44.360Z,4.90
2018-04-06T05:55:44.331Z,5.30
2018-04-06T05:56:44.303Z,5.20
2018-04-06T05:57:44.276Z,4.80
2018-04-06T05:58:44.252Z,5.00
2018-04-06T05:59:44.221Z,4.80
2018-04-06T06:00:44.191Z,4.90
2018-04-06T06:01:44.165Z,5.30
2018-04-06T06:02:44.137Z,5.00
2018-04-06T06:03:44.110Z,4.50
2018-04-06T06:04:44.082Z,4.80
2018-04-06T06:05:44.055Z,5.20
2018-04-06T06:06:44.027Z,5.10
2018-04-06T06:07:43.997Z,4.90
2018-04-06T06:08:43.971Z,4.70
2018-04-06T06:09:43.947Z,4.60
2018-04-06T06:10:43.915Z,4.60
2018-04-06T06:11:43.885Z,4.80
2018-04-06T06:12:43.858Z,4.70
2018-04-06T06:13:44.584Z,4.70
2018-04-06T06:14:43.804Z,4.30
2018-04-06T06:15:43.776Z,5.20
2018-04-06T06:16:43.748Z,4.40
2018-04-06T06:17:43.725Z,4.70
2018-04-06T06:18:43.693Z,4.50
2018-04-06T06:19:43.697Z,4.50
2018-04-06T06:20:43.639Z,4.60
2018-04-06T06:21:43.612Z,4.20
2018-04-06T06:22:43.584Z,4.20
2018-04-06T06:23:43.556Z,4.50
2018-04-06T06:24:43.529Z,4.60
2018-04-06T06:25:43.501Z,4.60
2018-04-06T06:26:43.473Z,4.70
2018-04-06T06:27:43.445Z,4.50
2018-04-06T06:28:43.424Z,4.20
2018-04-06T06:29:43.392Z,4.30
2018-04-06T06:30:43.366Z,4.50
2018-04-06T06:31:43.335Z,4.90
2018-04-06T06:32:43.310Z,4.30
2018-04-06T06:33:43.282Z,4.80
2018-04-06T06:34:43.255Z,4.40
2018-04-06T06:35:43.227Z,4.80
2018-04-06T06:36:43.200Z,4.10
2018-04-06T06:37:43.173Z,4.50
2018-04-06T06:38:43.145Z,4.30
2018-04-06T06:39:43.118Z,4.10
2018-04-06T06:40:43.093Z,4.10
2018-04-06T06:41:43.065Z,4.30
2018-04-06T06:42:43.037Z,4.60
2018-04-06T06:43:43.009Z,4.40
2018-04-06T06:44:42.983Z,4.60
2018-04-06T06:45:42.958Z,4.30
2018-04-06T06:46:42.928Z,4.50
2018-04-06T06:47:42.901Z,4.70
2018-04-06T06:48:42.874Z,4.30
2018-04-06T06:49:42.848Z,4.30
2018-04-06T06:50:42.822Z,4.30
2018-04-06T06:51:42.794Z,4.60
2018-04-06T06:52:42.766Z,4.20
2018-04-06T06:53:42.740Z,4.40
2018-04-06T06:54:42.712Z,4.30
2018-04-06T06:55:42.684Z,4.40
2018-04-06T06:56:43.409Z,4.00
2018-04-06T06:57:42.631Z,4.10
2018-04-06T06:58:42.604Z,4.00
2018-04-06T06:59:42.576Z,4.00
2018-04-06T07:00:42.550Z,4.40
2018-04-06T07:01:42.523Z,4.70
2018-04-06T07:02:42.500Z,3.80
2018-04-06T07:03:42.469Z,4.20
2018-04-06T07:04:42.442Z,4.20
2018-04-06T07:05:42.416Z,4.20
2018-04-06T07:06:42.391Z,4.00
2018-04-06T07:07:42.362Z,3.80
2018-04-06T07:08:42.334Z,4.50
2018-04-06T07:09:42.312Z,3.80
2018-04-06T07:10:42.285Z,4.20
2018-04-06T07:11:42.255Z,4.20
2018-04-06T07:12:42.229Z,4.40
2018-04-06T07:13:42.202Z,4.30
2018-04-06T07:14:42.176Z,4.10
2018-04-06T07:15:42.151Z,4.20
2018-04-06T07:16:42.123Z,4.40
2018-04-06T07:17:42.096Z,4.40
2018-04-06T07:18:42.075Z,4.20
2018-04-06T07:19:42.044Z,4.30
2018-04-06T07:20:42.018Z,4.10
2018-04-06T07:21:41.991Z,4.40
2018-04-06T07:22:41.964Z,4.00
2018-04-06T07:23:44.190Z,3.90
2018-04-06T07:24:41.912Z,4.20
2018-04-06T07:25:41.886Z,3.80
2018-04-06T07:26:41.859Z,4.00
2018-04-06T07:27:41.833Z,4.20
2018-04-06T07:28:41.806Z,4.30
2018-04-06T07:29:43.281Z,4.30
2018-04-06T07:30:41.756Z,4.50
2018-04-06T07:31:41.728Z,4.10
2018-04-06T07:32:41.704Z,4.30
2018-04-06T07:33:41.675Z,4.00
2018-04-06T07:34:41.651Z,4.20
2018-04-06T07:35:43.125Z,4.30
2018-04-06T07:36:41.598Z,4.20
2018-04-06T07:37:41.574Z,4.30
2018-04-06T07:38:41.546Z,4.10
2018-04-06T07:39:41.519Z,4.10
2018-04-06T07:40:41.493Z,4.60
2018-04-06T07:41:41.467Z,4.30
2018-04-06T07:42:41.444Z,4.10
2018-04-06T07:43:41.417Z,4.70
2018-04-06T07:44:41.389Z,4.00
2018-04-06T07:45:41.369Z,4.30
2018-04-06T07:46:41.340Z,4.30
2018-04-06T07:47:41.316Z,4.50
2018-04-06T07:48:41.287Z,4.10
2018-04-06T07:49:41.266Z,4.20
2018-04-06T07:50:41.286Z,4.00
2018-04-06T07:51:41.210Z,3.70
2018-04-06T07:52:41.184Z,4.40
2018-04-06T07:53:41.159Z,4.30
2018-04-06T07:54:41.134Z,4.00
2018-04-06T07:55:41.108Z,3.90
2018-04-06T07:56:41.082Z,4.10
2018-04-06T07:57:41.057Z,3.80
2018-04-06T07:58:41.032Z,3.80
2018-04-06T07:59:41.005Z,4.10
2018-04-06T08:00:40.981Z,4.10
2018-04-06T08:01:40.957Z,4.20
2018-04-06T08:02:42.432Z,3.90
2018-04-06T08:03:40.910Z,4.50
2018-04-06T08:04:40.879Z,4.10
2018-04-06T08:05:40.855Z,4.10
2018-04-06T08:06:40.830Z,3.90
2018-04-06T08:07:40.803Z,4.60
2018-04-06T08:08:40.782Z,4.40
2018-04-06T08:09:40.754Z,4.30
2018-04-06T08:10:40.729Z,4.40
2018-04-06T08:11:40.703Z,4.40
2018-04-06T08:12:40.678Z,4.40
2018-04-06T08:13:40.652Z,4.10
2018-04-06T08:14:40.627Z,4.40
2018-04-06T08:15:40.602Z,3.90
2018-04-06T08:16:40.576Z,4.40
2018-04-06T08:17:40.551Z,4.40
2018-04-06T08:18:40.529Z,4.70
2018-04-06T08:19:45.005Z,4.30
2018-04-06T08:20:40.475Z,4.40
2018-04-06T08:21:40.450Z,4.50
2018-04-06T08:22:40.431Z,4.70
2018-04-06T08:23:40.399Z,4.70
2018-04-06T08:24:40.375Z,4.50
2018-04-06T08:25:40.349Z,4.40
2018-04-06T08:26:40.325Z,4.70
2018-04-06T08:27:40.299Z,5.00
2018-04-06T08:28:40.273Z,4.90
2018-04-06T08:29:40.250Z,4.40
2018-04-06T08:30:40.224Z,4.80
2018-04-06T08:31:40.199Z,5.00
2018-04-06T08:32:40.175Z,4.80
2018-04-06T08:33:40.150Z,4.90
2018-04-06T08:34:40.124Z,5.00
2018-04-06T08:35:40.099Z,4.50
2018-04-06T08:36:40.075Z,4.90
2018-04-06T08:37:40.048Z,5.00
2018-04-06T08:38:40.024Z,5.00
2018-04-06T08:39:39.998Z,4.80
2018-04-06T08:40:39.973Z,5.00
2018-04-06T08:41:39.949Z,4.80
2018-04-06T08:42:39.924Z,4.90
2018-04-06T08:43:39.899Z,5.30
2018-04-06T08:44:39.875Z,4.70
2018-04-06T08:45:39.853Z,5.00
2018-04-06T08:46:39.826Z,4.60
2018-04-06T08:47:39.800Z,4.90
2018-04-06T08:48:39.775Z,5.00
2018-04-06T08:49:39.751Z,5.10
2018-04-06T08:50:39.726Z,5.00
2018-04-06T08:51:39.703Z,4.90
2018-04-06T08:52:39.676Z,4.80
2018-04-06T08:53:39.651Z,5.20
2018-04-06T08:54:39.650Z,4.80
2018-04-06T08:55:39.601Z,4.60
2018-04-06T08:56:39.577Z,4.60
2018-04-06T08:57:39.553Z,4.80
2018-04-06T08:58:39.529Z,4.80
2018-04-06T08:59:39.503Z,5.10
2018-04-06T09:00:39.479Z,4.70
2018-04-06T09:01:39.455Z,5.60
2018-04-06T09:02:39.431Z,4.80
2018-04-06T09:03:39.406Z,4.70
2018-04-06T09:04:39.418Z,5.00
2018-04-06T09:05:39.358Z,5.10
2018-04-06T09:06:39.334Z,5.40
2018-04-06T09:07:39.307Z,4.40
2018-04-06T09:08:40.035Z,5.10
2018-04-06T09:09:39.259Z,5.10
2018-04-06T09:10:39.235Z,5.60
2018-04-06T09:11:39.210Z,5.10
2018-04-06T09:12:39.251Z,4.90
2018-04-06T09:13:39.163Z,4.80
2018-04-06T09:14:39.139Z,5.10
2018-04-06T09:15:39.113Z,4.80
2018-04-06T09:16:39.089Z,5.10
2018-04-06T09:17:39.066Z,5.50
2018-04-06T09:18:39.042Z,5.00
2018-04-06T09:19:39.016Z,4.50
2018-04-06T09:20:38.992Z,5.00
2018-04-06T09:21:38.970Z,4.70
2018-04-06T09:22:38.947Z,5.20
2018-04-06T09:23:38.925Z,4.80
2018-04-06T09:24:38.896Z,5.20
2018-04-06T09:25:38.874Z,5.30
2018-04-06T09:26:38.849Z,4.90
2018-04-06T09:27:38.827Z,5.10
2018-04-06T09:28:38.805Z,8.30
2018-04-06T09:29:38.777Z,4.80
2018-04-06T09:30:38.754Z,5.00
2018-04-06T09:31:38.729Z,4.90
2018-04-06T09:32:38.705Z,5.30
2018-04-06T09:33:38.681Z,4.60
2018-04-06T09:34:38.658Z,5.10
2018-04-06T09:35:38.633Z,4.80
2018-04-06T09:36:38.609Z,4.40
2018-04-06T09:37:38.588Z,4.70
2018-04-06T09:38:38.564Z,4.70
2018-04-06T09:39:38.538Z,4.40
2018-04-06T09:40:38.516Z,4.90
2018-04-06T09:41:38.541Z,4.80
2018-04-06T09:42:38.467Z,4.50
2018-04-06T09:43:38.443Z,4.90
2018-04-06T09:44:38.420Z,5.20
2018-04-06T09:45:38.399Z,4.50
2018-04-06T09:46:38.373Z,4.50
2018-04-06T09:47:38.354Z,4.50
2018-04-06T09:48:38.333Z,4.80
2018-04-06T09:49:38.344Z,4.60
2018-04-06T09:50:38.278Z,4.80
2018-04-06T09:51:39.755Z,4.50
2018-04-06T09:52:38.231Z,4.40
2018-04-06T09:53:38.209Z,4.80
2018-04-06T09:54:38.185Z,4.80
2018-04-06T09:55:38.160Z,4.30
2018-04-06T09:56:38.138Z,4.10
2018-04-06T09:57:38.115Z,4.60
2018-04-06T09:58:38.090Z,5.00
2018-04-06T09:59:38.067Z,4.80
2018-04-06T10:00:38.044Z,4.70
2018-04-06T10:01:38.022Z,4.30
2018-04-06T10:02:37.997Z,4.50
2018-04-06T10:03:37.974Z,4.50
2018-04-06T10:04:37.952Z,4.30
2018-04-06T10:05:37.928Z,4.60
2018-04-06T10:06:37.905Z,4.50
2018-04-06T10:07:37.881Z,4.50
2018-04-06T10:08:37.859Z,4.40
2018-04-06T10:09:37.835Z,4.70
2018-04-06T10:10:37.816Z,4.50
2018-04-06T10:11:37.789Z,4.30
2018-04-06T10:12:37.766Z,4.30
2018-04-06T10:13:37.744Z,4.40
2018-04-06T10:14:37.720Z,4.20
2018-04-06T10:15:37.697Z,4.40
2018-04-06T10:16:37.674Z,4.00
2018-04-06T10:17:37.652Z,4.40
2018-04-06T10:18:37.633Z,4.10
2018-04-06T10:19:37.606Z,4.30
2018-04-06T10:20:37.581Z,4.20
2018-04-06T10:21:37.559Z,4.60
2018-04-06T10:22:37.536Z,4.40
2018-04-06T10:23:37.513Z,4.30
2018-04-06T10:24:37.491Z,4.20
2018-04-06T10:25:37.468Z,4.10
2018-04-06T10:26:37.445Z,4.90
2018-04-06T10:27:37.424Z,4.70
2018-04-06T10:28:37.402Z,4.30
2018-04-06T10:29:37.378Z,4.40
2018-04-06T10:30:37.356Z,4.50
2018-04-06T10:31:37.331Z,4.60
2018-04-06T10:32:37.310Z,4.70
2018-04-06T10:33:37.286Z,4.80
2018-04-06T10:34:37.264Z,4.60
2018-04-06T10:35:37.243Z,4.80
2018-04-06T10:36:37.218Z,4.80
2018-04-06T10:37:37.197Z,4.70
2018-04-06T10:38:37.178Z,4.50
2018-04-06T10:39:37.148Z,4.80
2018-04-06T10:40:37.131Z,4.40
2018-04-06T10:41:37.106Z,4.60
2018-04-06T10:42:37.083Z,4.70
2018-04-06T10:43:37.069Z,3.80
2018-04-06T10:44:37.036Z,5.10
2018-04-06T10:45:37.015Z,5.40
2018-04-06T10:46:36.993Z,4.40
2018-04-06T10:47:36.974Z,4.50
2018-04-06T10:48:36.948Z,4.30
2018-04-06T10:49:36.926Z,4.70
2018-04-06T10:50:36.903Z,4.40
2018-04-06T10:51:36.879Z,4.90
2018-04-06T10:52:36.858Z,4.90
2018-04-06T10:53:36.836Z,4.90
2018-04-06T10:54:36.817Z,5.20
2018-04-06T10:55:36.791Z,5.30
2018-04-06T10:56:36.768Z,5.90
2018-04-06T10:57:36.745Z,5.00
2018-04-06T10:58:36.736Z,5.60
2018-04-06T10:59:36.702Z,5.30
2018-04-06T11:00:36.684Z,5.10
2018-04-06T11:01:36.656Z,5.40
2018-04-06T11:02:36.641Z,5.30
2018-04-06T11:03:36.612Z,5.00
2018-04-06T11:04:36.589Z,5.20
2018-04-06T11:05:36.571Z,5.10
2018-04-06T11:06:36.547Z,5.30
2018-04-06T11:07:36.524Z,4.90
2018-04-06T11:08:36.501Z,5.40
2018-04-06T11:09:36.479Z,4.90
2018-04-06T11:10:36.457Z,5.00
2018-04-06T11:11:36.433Z,5.50
2018-04-06T11:12:36.413Z,4.70
2018-04-06T11:13:36.392Z,4.80
2018-04-06T11:14:36.370Z,4.80
2018-04-06T11:15:36.346Z,5.30
2018-04-06T11:16:37.075Z,4.30
2018-04-06T11:17:36.302Z,4.30
2018-04-06T11:18:36.282Z,4.50
2018-04-06T11:19:36.257Z,5.00
2018-04-06T11:20:36.237Z,4.50
2018-04-06T11:21:36.215Z,4.90
2018-04-06T11:22:36.193Z,4.90
2018-04-06T11:23:36.170Z,5.50
2018-04-06T11:24:36.149Z,5.20
2018-04-06T11:25:36.127Z,5.10
2018-04-06T11:26:36.106Z,4.80
2018-04-06T11:27:36.086Z,4.80
2018-04-06T11:28:36.062Z,5.10
2018-04-06T11:29:36.039Z,5.00
2018-04-06T11:30:36.021Z,4.60
2018-04-06T11:31:35.996Z,4.60
2018-04-06T11:32:35.974Z,4.90
2018-04-06T11:33:35.951Z,4.90
2018-04-06T11:34:35.930Z,5.10
2018-04-06T11:35:35.908Z,5.30
2018-04-06T11:36:35.887Z,5.20
2018-04-06T11:37:35.865Z,5.30
2018-04-06T11:38:35.842Z,5.10
2018-04-06T11:39:35.820Z,5.20
2018-04-06T11:40:35.800Z,5.50
2018-04-06T11:41:35.781Z,5.60
2018-04-06T11:42:35.757Z,4.90
2018-04-06T11:43:35.732Z,4.80
2018-04-06T11:44:35.712Z,5.10
2018-04-06T11:45:35.690Z,5.00
2018-04-06T11:46:35.669Z,5.50
2018-04-06T11:47:35.646Z,4.90
2018-04-06T11:48:35.625Z,4.60
2018-04-06T11:49:35.604Z,4.90
2018-04-06T11:50:35.582Z,4.80
2018-04-06T11:51:35.560Z,4.50
2018-04-06T11:52:35.538Z,5.00
2018-04-06T11:53:35.517Z,4.90
2018-04-06T11:54:35.495Z,4.60
2018-04-06T11:55:35.473Z,4.70
2018-04-06T11:56:35.452Z,4.80
2018-04-06T11:57:35.434Z,4.60
2018-04-06T11:58:35.411Z,4.60
2018-04-06T11:59:35.391Z,4.60
2018-04-06T12:00:35.372Z,4.40
2018-04-06T12:01:35.346Z,4.30
2018-04-06T12:02:35.327Z,4.40
2018-04-06T12:03:35.304Z,4.40
2018-04-06T12:04:35.281Z,4.60
2018-04-06T12:05:35.261Z,4.60
2018-04-06T12:06:35.240Z,4.10
2018-04-06T12:07:35.218Z,4.70
2018-04-06T12:08:35.196Z,4.90
2018-04-06T12:09:35.175Z,4.90
2018-04-06T12:10:35.155Z,5.10
2018-04-06T12:11:35.133Z,4.20
2018-04-06T12:12:35.110Z,4.60
2018-04-06T12:13:35.090Z,4.40
2018-04-06T12:14:35.069Z,4.30
2018-04-06T12:15:35.047Z,4.50
2018-04-06T12:16:35.028Z,4.80
2018-04-06T12:17:35.010Z,4.80
2018-04-06T12:18:34.985Z,4.80
2018-04-06T12:19:34.967Z,4.40
2018-04-06T12:20:34.942Z,4.50
2018-04-06T12:21:34.923Z,4.70
2018-04-06T12:22:34.904Z,4.80
2018-04-06T12:23:34.879Z,4.30
2018-04-06T12:24:34.858Z,4.40
2018-04-06T12:25:34.837Z,4.20
2018-04-06T12:26:34.816Z,3.90
2018-04-06T12:27:34.795Z,4.60
2018-04-06T12:28:34.773Z,4.40
2018-04-06T12:29:34.753Z,4.80
2018-04-06T12:30:34.732Z,4.70
2018-04-06T12:31:34.712Z,4.90
2018-04-06T12:32:34.689Z,4.60
2018-04-06T12:33:34.669Z,4.10
2018-04-06T12:34:34.650Z,4.50
2018-04-06T12:35:34.628Z,4.40
2018-04-06T12:36:34.608Z,4.50
2018-04-06T12:37:34.595Z,4.60
2018-04-06T12:38:34.590Z,4.60
2018-04-06T12:39:34.544Z,4.60
2018-04-06T12:40:34.523Z,4.70
2018-04-06T12:41:34.503Z,4.60
2018-04-06T12:42:34.482Z,4.10
2018-04-06T12:43:34.460Z,4.70
2018-04-06T12:44:34.440Z,4.60
2018-04-06T12:45:34.419Z,4.60
2018-04-06T12:46:34.400Z,4.30
2018-04-06T12:47:34.378Z,4.30
2018-04-06T12:48:34.357Z,4.40
2018-04-06T12:49:34.338Z,4.80
2018-04-06T12:50:34.318Z,4.40
2018-04-06T12:51:34.295Z,4.10
2018-04-06T12:52:34.279Z,4.40
2018-04-06T12:53:34.256Z,4.40
2018-04-06T12:54:34.233Z,5.00
2018-04-06T12:55:34.213Z,4.40
2018-04-06T12:56:34.193Z,4.30
2018-04-06T12:57:34.173Z,4.20
2018-04-06T12:58:34.152Z,4.40
2018-04-06T12:59:34.130Z,4.30
2018-04-06T13:00:34.110Z,4.50
2018-04-06T13:01:34.090Z,4.10
2018-04-06T13:02:34.069Z,4.60
2018-04-06T13:03:34.048Z,4.00
2018-04-06T13:04:34.029Z,4.80
2018-04-06T13:05:34.008Z,4.20
2018-04-06T13:06:33.988Z,4.50
2018-04-06T13:07:33.968Z,3.90
2018-04-06T13:08:33.947Z,4.40
2018-04-06T13:09:33.928Z,4.20
2018-04-06T13:10:33.907Z,4.10
2018-04-06T13:11:33.886Z,4.00
2018-04-06T13:12:33.870Z,4.30
2018-04-06T13:13:33.846Z,3.70
2018-04-06T13:14:33.825Z,3.90
2018-04-06T13:15:33.805Z,3.90
2018-04-06T13:16:33.786Z,3.80
2018-04-06T13:17:33.806Z,4.10
2018-04-06T13:18:35.246Z,4.10